createdAt,value
2023-03-13T00:01:20.296Z,0.10
2023-03-13T00:03:49.084Z,0.20
2023-03-13T00:06:20.740Z,0.20
2023-03-13T00:08:48.715Z,0.20
2023-03-13T00:11:17.244Z,0.30
2023-03-13T00:13:45.095Z,0.20
2023-03-13T00:16:19.383Z,0.20
2023-03-13T00:18:47.987Z,0.20
2023-03-13T00:21:15.949Z,0.30
2023-03-13T00:23:54.642Z,0.20
2023-03-13T00:26:23.392Z,0.30
2023-03-13T00:28:51.992Z,0.40
2023-03-13T00:31:23.134Z,0.30
2023-03-13T00:33:53.926Z,0.30
2023-03-13T00:36:25.949Z,0.20
2023-03-13T00:38:54.242Z,0.30
2023-03-13T00:41:23.060Z,0.30
2023-03-13T00:43:54.967Z,0.20
2023-03-13T00:46:23.655Z,0.30
2023-03-13T00:48:51.612Z,0.30
2023-03-13T00:51:20.208Z,0.20
2023-03-13T00:53:49.431Z,0.20
2023-03-13T00:56:17.734Z,0.10
2023-03-13T00:58:46.149Z,0.20
2023-03-13T01:01:15.109Z,0.30
2023-03-13T01:03:45.447Z,0.30
2023-03-13T01:06:14.555Z,0.30
2023-03-13T01:08:42.638Z,0.30
2023-03-13T01:11:12.173Z,0.30
2023-03-13T01:13:40.857Z,0.30
2023-03-13T01:16:17.743Z,0.40
2023-03-13T01:18:51.478Z,0.50
2023-03-13T01:21:20.316Z,0.50
2023-03-13T01:23:48.485Z,0.40
2023-03-13T01:26:17.338Z,0.40
2023-03-13T01:28:50.288Z,0.40
2023-03-13T01:31:25.522Z,0.40
2023-03-13T01:34:00.802Z,0.40
2023-03-13T01:36:30.994Z,0.50
2023-03-13T01:38:59.603Z,0.50
2023-03-13T01:41:29.472Z,0.50
2023-03-13T01:43:59.743Z,0.30
2023-03-13T01:46:45.976Z,0.30
2023-03-13T01:49:34.460Z,0.30
2023-03-13T01:52:15.328Z,0.30
2023-03-13T01:54:51.166Z,0.30
2023-03-13T01:57:20.960Z,0.20
2023-03-13T02:00:08.914Z,0.20
2023-03-13T02:02:48.657Z,0.20
2023-03-13T02:05:17.142Z,0.10
2023-03-13T02:07:55.364Z,0.20
2023-03-13T02:10:23.300Z,0.20
2023-03-13T02:12:51.767Z,0.20
2023-03-13T02:15:21.516Z,0.20
2023-03-13T02:17:49.694Z,0.10
2023-03-13T02:20:23.000Z,0.10
2023-03-13T02:22:57.116Z,0.30
2023-03-13T02:25:25.300Z,0.10
2023-03-13T02:28:05.956Z,0.10
2023-03-13T02:30:35.238Z,0.10
2023-03-13T02:33:04.119Z,0.20
2023-03-13T02:35:38.417Z,0.20
2023-03-13T02:38:10.685Z,0.10
2023-03-13T02:40:39.960Z,0.10
2023-03-13T02:43:30.972Z,0.10
2023-03-13T02:46:02.024Z,0.20
2023-03-13T02:48:40.624Z,0.10
2023-03-13T02:51:11.560Z,0.20
2023-03-13T02:53:39.626Z,0.20
2023-03-13T02:56:07.633Z,0.20
2023-03-13T02:58:49.273Z,0.20
2023-03-13T03:01:18.449Z,0.50
2023-03-13T03:03:47.167Z,0.20
2023-03-13T03:06:15.658Z,0.20
2023-03-13T03:08:44.074Z,0.20
2023-03-13T03:11:12.959Z,0.20
2023-03-13T03:13:41.658Z,0.10
2023-03-13T03:16:10.422Z,0.10
2023-03-13T03:18:38.582Z,0.20
2023-03-13T03:21:06.771Z,0.20
2023-03-13T03:23:38.232Z,0.20
2023-03-13T03:26:06.718Z,0.20
2023-03-13T03:28:35.237Z,0.20
2023-03-13T03:31:10.315Z,0.20
2023-03-13T03:33:38.334Z,0.20
2023-03-13T03:36:12.335Z,0.20
2023-03-13T03:38:41.462Z,0.30
2023-03-13T03:41:10.283Z,0.20
2023-03-13T03:43:38.201Z,0.30
2023-03-13T03:46:06.921Z,0.30
2023-03-13T03:48:35.887Z,0.30
2023-03-13T03:51:06.012Z,0.40
2023-03-13T03:53:37.295Z,0.30
2023-03-13T03:56:05.541Z,0.50
2023-03-13T03:58:33.859Z,0.40
2023-03-13T04:01:11.380Z,0.30
2023-03-13T04:03:40.231Z,0.30
2023-03-13T04:06:09.352Z,0.30
2023-03-13T04:08:37.317Z,0.30
2023-03-13T04:11:05.203Z,0.50
2023-03-13T04:13:37.811Z,0.40
2023-03-13T04:16:09.410Z,0.30
2023-03-13T04:18:37.805Z,0.40
2023-03-13T04:21:06.173Z,0.30
2023-03-13T04:26:18.676Z,0.20
2023-03-13T04:28:47.384Z,0.40
2023-03-13T04:31:21.009Z,0.40
2023-03-13T04:34:14.347Z,0.40
2023-03-13T04:37:06.397Z,0.40
2023-03-13T04:39:53.057Z,0.40
2023-03-13T04:42:42.731Z,0.50
2023-03-13T04:45:30.529Z,0.40
2023-03-13T04:48:14.857Z,0.60
2023-03-13T04:50:58.938Z,0.40
2023-03-13T04:53:47.072Z,0.40
2023-03-13T04:56:26.826Z,0.40
2023-03-13T04:59:23.612Z,0.40
2023-03-13T05:02:04.105Z,0.60
2023-03-13T05:04:55.255Z,0.40
2023-03-13T05:07:31.866Z,0.50
2023-03-13T05:10:03.297Z,0.50
2023-03-13T05:13:05.900Z,0.50
2023-03-13T05:15:57.312Z,0.60
2023-03-13T05:18:39.408Z,0.50
2023-03-13T05:21:31.236Z,0.50
2023-03-13T05:24:07.093Z,0.60
2023-03-13T05:26:53.750Z,0.60
2023-03-13T05:29:51.134Z,0.70
2023-03-13T05:32:45.775Z,0.60
2023-03-13T05:35:37.139Z,0.50
2023-03-13T05:38:24.196Z,0.50
2023-03-13T05:41:10.857Z,0.60
2023-03-13T05:43:39.104Z,0.50
2023-03-13T05:46:25.528Z,0.70
2023-03-13T05:49:12.042Z,0.70
2023-03-13T05:51:58.482Z,0.70
2023-03-13T05:54:42.317Z,0.70
2023-03-13T05:57:43.995Z,0.70
2023-03-13T06:00:21.913Z,0.70
2023-03-13T06:03:05.691Z,0.50
2023-03-13T06:05:43.888Z,0.50
2023-03-13T06:08:24.630Z,0.60
2023-03-13T06:10:52.754Z,0.60
2023-03-13T06:13:20.641Z,0.60
2023-03-13T06:15:53.190Z,0.50
2023-03-13T06:18:39.431Z,0.60
2023-03-13T06:21:07.288Z,0.70
2023-03-13T06:23:35.503Z,0.70
2023-03-13T06:26:03.325Z,0.80
2023-03-13T06:28:31.279Z,0.90
2023-03-13T06:31:03.062Z,0.90
2023-03-13T06:33:31.258Z,0.80
2023-03-13T06:36:00.418Z,0.90
2023-03-13T06:38:28.491Z,1.10
2023-03-13T06:40:56.716Z,0.70
2023-03-13T06:43:24.727Z,0.90
2023-03-13T06:45:52.912Z,0.80
2023-03-13T06:48:23.143Z,0.70
2023-03-13T06:50:51.424Z,0.90
2023-03-13T06:53:19.642Z,0.80
2023-03-13T06:55:49.142Z,0.80
2023-03-13T06:58:30.976Z,1.00
2023-03-13T07:01:01.057Z,0.90
2023-03-13T07:03:29.171Z,1.40
2023-03-13T07:05:58.123Z,1.00
2023-03-13T07:08:26.260Z,0.90
2023-03-13T07:11:01.538Z,0.90
2023-03-13T07:13:30.342Z,0.90
2023-03-13T07:16:04.488Z,1.00
2023-03-13T07:18:34.457Z,0.90
2023-03-13T07:21:05.206Z,0.90
2023-03-13T07:23:33.519Z,0.90
2023-03-13T07:26:02.774Z,1.00
2023-03-13T07:28:31.634Z,1.00
2023-03-13T07:31:08.265Z,0.90
2023-03-13T07:33:36.435Z,0.90
2023-03-13T07:36:04.549Z,0.90
2023-03-13T07:38:33.061Z,0.80
2023-03-13T07:41:02.162Z,0.90
2023-03-13T07:43:31.498Z,0.80
2023-03-13T07:46:03.412Z,0.80
2023-03-13T07:51:01.858Z,0.90
2023-03-13T07:53:30.197Z,0.60
2023-03-13T07:55:58.043Z,1.00
2023-03-13T07:58:26.813Z,0.70
2023-03-13T08:00:54.808Z,0.80
2023-03-13T08:03:22.702Z,1.00
2023-03-13T08:06:04.197Z,0.60
2023-03-13T08:08:32.335Z,1.40
2023-03-13T08:11:01.521Z,0.70
2023-03-13T08:13:32.129Z,0.70
2023-03-13T08:16:06.515Z,0.80
2023-03-13T08:18:35.143Z,0.70
2023-03-13T08:21:08.434Z,0.80
2023-03-13T08:23:36.503Z,0.80
2023-03-13T08:26:09.199Z,0.70
2023-03-13T08:28:37.127Z,0.90
2023-03-13T08:31:15.407Z,0.60
2023-03-13T08:33:46.211Z,0.90
2023-03-13T08:36:25.324Z,0.90
2023-03-13T08:38:53.674Z,1.80
2023-03-13T08:41:22.254Z,0.90
2023-03-13T08:43:51.965Z,0.80
2023-03-13T08:46:20.018Z,0.70
2023-03-13T08:48:51.714Z,0.70
2023-03-13T08:51:20.245Z,0.60
2023-03-13T08:53:48.322Z,0.90
2023-03-13T08:56:23.657Z,0.70
2023-03-13T08:58:55.330Z,0.70
2023-03-13T09:01:23.832Z,0.90
2023-03-13T09:03:52.818Z,0.70
2023-03-13T09:06:21.054Z,0.90
2023-03-13T09:08:52.647Z,0.80
2023-03-13T09:11:21.949Z,0.70
2023-03-13T09:13:52.590Z,0.70
2023-03-13T09:16:22.195Z,0.70
2023-03-13T09:18:50.666Z,0.70
2023-03-13T09:22:23.356Z,0.80
2023-03-13T09:24:52.103Z,0.70
2023-03-13T09:27:20.341Z,0.60
2023-03-13T09:29:48.514Z,0.60
2023-03-13T09:32:17.130Z,0.70
2023-03-13T09:34:45.070Z,0.80
2023-03-13T09:37:13.065Z,0.80
2023-03-13T09:39:41.424Z,0.60
2023-03-13T09:42:14.876Z,0.60
2023-03-13T09:45:04.651Z,0.80
2023-03-13T09:48:21.197Z,0.60
2023-03-13T09:50:59.633Z,0.50
2023-03-13T09:53:34.823Z,0.50
2023-03-13T09:56:03.955Z,0.70
2023-03-13T09:58:31.821Z,0.60
2023-03-13T10:01:06.084Z,0.60
2023-03-13T10:03:39.040Z,0.50
2023-03-13T10:06:20.158Z,0.60
2023-03-13T10:08:53.025Z,0.60
2023-03-13T10:11:42.473Z,0.80
2023-03-13T10:14:14.032Z,0.70
2023-03-13T10:17:23.472Z,0.70
2023-03-13T10:19:57.422Z,0.70
2023-03-13T10:22:26.729Z,0.70
2023-03-13T10:25:10.312Z,0.60
2023-03-13T10:27:50.746Z,0.60
2023-03-13T10:30:25.325Z,0.60
2023-03-13T10:33:01.918Z,0.70
2023-03-13T10:35:35.403Z,0.50
2023-03-13T10:38:20.350Z,0.60
2023-03-13T10:41:05.497Z,0.70
2023-03-13T10:43:33.572Z,0.50
2023-03-13T10:46:03.892Z,0.80
2023-03-13T10:48:36.968Z,0.70
2023-03-13T10:51:20.229Z,0.70
2023-03-13T10:53:48.468Z,0.60
2023-03-13T10:56:19.800Z,0.70
2023-03-13T10:58:49.768Z,0.70
2023-03-13T11:01:28.927Z,0.60
2023-03-13T11:03:57.361Z,0.80
2023-03-13T11:06:26.545Z,0.90
2023-03-13T11:09:19.202Z,0.70
2023-03-13T11:11:55.698Z,0.80
2023-03-13T11:14:25.241Z,0.70
2023-03-13T11:17:25.337Z,0.90
2023-03-13T11:20:27.976Z,0.60
2023-03-13T11:23:11.595Z,0.50
2023-03-13T11:25:50.109Z,0.90
2023-03-13T11:28:25.449Z,0.60
2023-03-13T11:31:02.540Z,0.60
2023-03-13T11:33:51.180Z,0.60
2023-03-13T11:36:27.641Z,0.60
2023-03-13T11:39:01.020Z,0.60
2023-03-13T11:41:36.916Z,0.60
2023-03-13T11:44:17.990Z,0.60
2023-03-13T11:46:49.172Z,0.80
2023-03-13T11:49:42.368Z,0.60
2023-03-13T11:52:20.879Z,0.80
2023-03-13T11:54:58.581Z,0.60
2023-03-13T11:57:37.914Z,1.00
2023-03-13T12:00:25.256Z,3.20
2023-03-13T12:03:11.834Z,1.00
2023-03-13T12:05:48.594Z,0.60
2023-03-13T12:08:19.948Z,0.60
2023-03-13T12:11:02.854Z,0.60
2023-03-13T12:13:33.281Z,1.20
2023-03-13T12:16:04.049Z,0.70
2023-03-13T12:18:39.161Z,0.90
2023-03-13T12:21:28.297Z,0.60
2023-03-13T12:24:05.139Z,0.70
2023-03-13T12:26:33.477Z,0.60
2023-03-13T12:29:26.572Z,0.60
2023-03-13T12:32:00.092Z,0.60
2023-03-13T12:34:50.577Z,0.70
2023-03-13T12:37:31.145Z,0.60
2023-03-13T12:40:19.397Z,0.50
2023-03-13T12:42:55.352Z,0.60
2023-03-13T12:45:26.184Z,0.60
2023-03-13T12:48:20.761Z,0.40
2023-03-13T12:50:49.279Z,0.50
2023-03-13T12:53:29.498Z,0.60
2023-03-13T12:56:00.532Z,0.50
2023-03-13T12:58:49.906Z,0.50
2023-03-13T13:01:23.846Z,0.60
2023-03-13T13:04:27.686Z,0.60
2023-03-13T13:07:02.565Z,0.50
2023-03-13T13:09:40.152Z,0.60
2023-03-13T13:12:24.426Z,0.50
2023-03-13T13:14:52.365Z,0.70
2023-03-13T13:17:43.436Z,0.90
2023-03-13T13:20:33.361Z,0.60
2023-03-13T13:23:26.659Z,1.30
2023-03-13T13:25:56.398Z,0.70
2023-03-13T13:28:33.631Z,0.50
2023-03-13T13:33:35.579Z,0.50
2023-03-13T13:36:10.388Z,0.70
2023-03-13T13:38:42.781Z,0.50
2023-03-13T13:41:11.408Z,0.60
2023-03-13T13:43:45.591Z,0.50
2023-03-13T13:46:30.295Z,0.60
2023-03-13T13:49:07.659Z,0.70
2023-03-13T13:52:03.884Z,0.70
2023-03-13T13:54:42.191Z,0.60
2023-03-13T13:57:46.165Z,0.70
2023-03-13T14:00:19.798Z,0.60
2023-03-13T14:02:56.234Z,1.30
2023-03-13T14:05:33.582Z,0.90
2023-03-13T14:08:13.975Z,0.70
2023-03-13T14:10:43.393Z,0.70
2023-03-13T14:13:12.537Z,0.80
2023-03-13T14:15:47.758Z,0.80
2023-03-13T14:18:28.854Z,0.70
2023-03-13T14:21:04.332Z,0.90
2023-03-13T14:23:42.867Z,0.70
2023-03-13T14:26:27.979Z,0.80
2023-03-13T14:29:03.001Z,0.70
2023-03-13T14:31:33.830Z,1.10
2023-03-13T14:34:11.706Z,0.70
2023-03-13T14:36:57.146Z,0.80
2023-03-13T14:39:32.744Z,0.90
2023-03-13T14:42:02.627Z,0.70
2023-03-13T14:44:31.637Z,0.80
2023-03-13T14:47:07.758Z,0.90
2023-03-13T14:49:36.128Z,0.70
2023-03-13T14:52:08.991Z,0.70
2023-03-13T14:54:52.530Z,0.60
2023-03-13T14:57:23.606Z,0.80
2023-03-13T14:59:53.858Z,0.50
2023-03-13T15:02:27.684Z,1.00
2023-03-13T15:07:19.970Z,2.80
2023-03-13T15:09:48.408Z,0.90
2023-03-13T15:12:17.206Z,0.90
2023-03-13T15:14:45.860Z,0.90
2023-03-13T15:17:20.860Z,1.00
2023-03-13T15:19:50.014Z,0.70
2023-03-13T15:22:18.078Z,0.70
2023-03-13T15:25:05.343Z,0.60
2023-03-13T15:27:35.938Z,0.80
2023-03-13T15:30:09.217Z,0.70
2023-03-13T15:32:37.541Z,0.90
2023-03-13T15:35:24.751Z,1.00
2023-03-13T15:37:53.028Z,2.80
2023-03-13T15:40:21.129Z,1.50
2023-03-13T15:42:48.992Z,2.30
2023-03-13T15:45:16.929Z,1.00
2023-03-13T15:47:45.046Z,1.00
2023-03-13T15:50:13.538Z,1.20
2023-03-13T15:52:41.585Z,1.60
2023-03-13T15:55:12.434Z,1.30
2023-03-13T15:57:42.446Z,0.90
2023-03-13T16:00:20.553Z,1.00
2023-03-13T16:02:49.044Z,1.10
2023-03-13T16:05:17.123Z,1.30
2023-03-13T16:07:48.334Z,1.60
2023-03-13T16:10:21.152Z,1.30
2023-03-13T16:12:50.145Z,0.80
2023-03-13T16:15:19.091Z,0.90
2023-03-13T16:17:47.765Z,0.90
2023-03-13T16:20:21.632Z,1.00
2023-03-13T16:22:50.657Z,0.80
2023-03-13T16:25:20.254Z,0.80
2023-03-13T16:27:48.326Z,0.80
2023-03-13T16:30:22.241Z,0.80
2023-03-13T16:32:50.660Z,1.10
2023-03-13T16:35:18.474Z,1.00
2023-03-13T16:37:46.365Z,0.90
2023-03-13T16:40:16.281Z,0.80
2023-03-13T16:42:44.456Z,0.80
2023-03-13T16:45:13.573Z,0.80
2023-03-13T16:47:42.500Z,0.80
2023-03-13T16:50:22.202Z,0.90
2023-03-13T16:52:50.883Z,0.80
2023-03-13T16:55:19.204Z,2.20
2023-03-13T16:57:47.283Z,1.90
2023-03-13T17:00:19.111Z,2.00
2023-03-13T17:02:47.680Z,3.50
2023-03-13T17:05:16.246Z,1.60
2023-03-13T17:07:44.980Z,1.80
2023-03-13T17:10:18.373Z,1.50
2023-03-13T17:12:46.753Z,1.20
2023-03-13T17:15:15.678Z,1.30
2023-03-13T17:17:48.763Z,1.30
2023-03-13T17:20:16.994Z,3.60
2023-03-13T17:22:45.663Z,3.90
2023-03-13T17:25:13.743Z,1.70
2023-03-13T17:27:42.774Z,1.90
2023-03-13T17:30:15.973Z,0.90
2023-03-13T17:32:43.791Z,1.80
2023-03-13T17:35:11.628Z,2.40
2023-03-13T17:37:39.786Z,3.30
2023-03-13T17:40:13.802Z,1.90
2023-03-13T17:42:41.924Z,1.70
2023-03-13T17:45:10.218Z,1.40
2023-03-13T17:47:38.124Z,1.10
2023-03-13T17:50:13.952Z,0.80
2023-03-13T17:52:43.025Z,0.70
2023-03-13T17:55:10.955Z,1.00
2023-03-13T17:57:38.892Z,1.20
2023-03-13T18:00:13.597Z,1.00
2023-03-13T18:05:10.442Z,1.40
2023-03-13T18:07:44.448Z,1.10
2023-03-13T18:12:44.603Z,1.00
2023-03-13T18:15:12.906Z,1.00
2023-03-13T18:17:43.681Z,1.20
2023-03-13T18:20:19.999Z,1.00
2023-03-13T18:22:47.958Z,2.50
2023-03-13T18:25:15.901Z,7.80
2023-03-13T18:27:44.088Z,4.40
2023-03-13T18:30:17.116Z,8.00
2023-03-13T18:32:46.796Z,3.50
2023-03-13T18:35:15.028Z,3.60
2023-03-13T18:37:45.045Z,1.70
2023-03-13T18:40:17.121Z,1.80
2023-03-13T18:42:50.864Z,7.20
2023-03-13T18:45:22.456Z,2.40
2023-03-13T18:47:50.496Z,1.70
2023-03-13T18:50:26.604Z,1.70
2023-03-13T18:52:55.390Z,0.90
2023-03-13T18:55:24.063Z,1.00
2023-03-13T18:57:52.167Z,1.00
2023-03-13T19:00:21.075Z,0.80
2023-03-13T19:02:49.738Z,0.80
2023-03-13T19:05:17.690Z,0.80
2023-03-13T19:07:47.016Z,1.40
2023-03-13T19:10:15.728Z,0.90
2023-03-13T19:12:48.068Z,2.20
2023-03-13T19:15:16.392Z,1.20
2023-03-13T19:17:45.190Z,1.00
2023-03-13T19:20:17.372Z,1.40
2023-03-13T19:22:46.365Z,1.30
2023-03-13T19:25:16.458Z,1.50
2023-03-13T19:27:45.451Z,1.10
2023-03-13T19:30:17.304Z,1.10
2023-03-13T19:32:45.337Z,1.30
2023-03-13T19:35:13.406Z,1.40
2023-03-13T19:37:41.326Z,1.90
2023-03-13T19:40:16.796Z,3.30
2023-03-13T19:42:44.881Z,2.80
2023-03-13T19:45:12.890Z,2.90
2023-03-13T19:47:43.125Z,1.90
2023-03-13T19:50:18.377Z,3.20
2023-03-13T19:52:46.254Z,3.80
2023-03-13T19:55:14.193Z,2.00
2023-03-13T19:57:42.303Z,2.30
2023-03-13T20:00:20.935Z,2.40
2023-03-13T20:02:49.175Z,2.30
2023-03-13T20:05:17.307Z,1.60
2023-03-13T20:07:45.635Z,1.60
2023-03-13T20:10:13.413Z,1.50
2023-03-13T20:12:42.092Z,2.30
2023-03-13T20:15:12.227Z,1.20
2023-03-13T20:17:41.743Z,1.30
2023-03-13T20:20:11.071Z,1.30
2023-03-13T20:22:39.341Z,1.10
2023-03-13T20:25:08.089Z,1.40
2023-03-13T20:27:39.410Z,1.70
2023-03-13T20:30:07.690Z,1.20
2023-03-13T20:32:36.727Z,1.20
2023-03-13T20:35:10.659Z,1.30
2023-03-13T20:37:38.636Z,1.00
2023-03-13T20:40:12.933Z,1.50
2023-03-13T20:42:40.920Z,1.40
2023-03-13T20:45:09.513Z,1.30
2023-03-13T20:47:38.063Z,1.20
2023-03-13T20:50:06.410Z,1.00
2023-03-13T20:52:34.831Z,1.10
2023-03-13T20:55:02.831Z,0.80
2023-03-13T20:57:32.641Z,0.90
2023-03-13T21:00:00.729Z,1.30
2023-03-13T21:02:28.867Z,0.80
2023-03-13T21:04:56.780Z,1.00
2023-03-13T21:07:24.959Z,0.90
2023-03-13T21:09:53.111Z,0.80
2023-03-13T21:12:21.005Z,0.80
2023-03-13T21:14:53.574Z,1.10
2023-03-13T21:17:21.521Z,0.80
2023-03-13T21:19:50.396Z,0.90
2023-03-13T21:22:18.272Z,0.90
2023-03-13T21:24:50.197Z,1.50
2023-03-13T21:27:18.128Z,1.10
2023-03-13T21:29:47.367Z,1.00
2023-03-13T21:32:15.195Z,1.00
2023-03-13T21:34:44.216Z,1.00
2023-03-13T21:37:12.514Z,1.00
2023-03-13T21:39:43.301Z,1.00
2023-03-13T21:42:13.818Z,0.80
2023-03-13T21:44:42.568Z,0.90
2023-03-13T21:47:13.113Z,0.80
2023-03-13T21:49:41.795Z,0.90
2023-03-13T21:52:09.713Z,1.00
2023-03-13T21:54:38.049Z,0.80
2023-03-13T21:57:07.560Z,1.10
2023-03-13T21:59:36.297Z,0.90
2023-03-13T22:02:04.528Z,0.80
2023-03-13T22:04:33.321Z,1.00
2023-03-13T22:07:01.159Z,0.80
2023-03-13T22:09:29.006Z,0.80
2023-03-13T22:11:57.222Z,0.80
2023-03-13T22:14:28.080Z,0.70
2023-03-13T22:16:55.888Z,0.70
2023-03-13T22:19:27.100Z,0.70
2023-03-13T22:21:55.582Z,0.90
2023-03-13T22:24:23.718Z,0.80
2023-03-13T22:26:52.041Z,0.80
2023-03-13T22:29:20.093Z,0.90
2023-03-13T22:31:51.026Z,0.90
2023-03-13T22:34:19.044Z,0.80
2023-03-13T22:36:47.110Z,0.80
2023-03-13T22:39:15.067Z,0.80
2023-03-13T22:41:43.175Z,0.70
2023-03-13T22:44:11.023Z,0.80
2023-03-13T22:46:38.966Z,0.70
2023-03-13T22:49:08.415Z,0.80
2023-03-13T22:51:37.502Z,0.80
2023-03-13T22:54:05.379Z,0.90
2023-03-13T22:56:34.064Z,0.80
2023-03-13T22:59:03.271Z,0.70
2023-03-13T23:01:31.368Z,0.70
2023-03-13T23:03:59.528Z,0.80
2023-03-13T23:06:27.321Z,0.80
2023-03-13T23:08:55.214Z,0.70
2023-03-13T23:11:23.228Z,0.60
2023-03-13T23:13:51.223Z,0.60
2023-03-13T23:16:19.006Z,0.90
2023-03-13T23:18:46.871Z,0.80
2023-03-13T23:21:16.385Z,0.70
2023-03-13T23:23:44.398Z,0.80
2023-03-13T23:26:13.425Z,0.80
2023-03-13T23:28:41.643Z,0.70
2023-03-13T23:31:15.429Z,0.80
2023-03-13T23:33:44.788Z,0.60
2023-03-13T23:36:13.913Z,0.80
2023-03-13T23:38:41.911Z,0.80
2023-03-13T23:41:10.394Z,0.80
2023-03-13T23:43:38.395Z,0.70
2023-03-13T23:46:06.634Z,0.70
2023-03-13T23:48:34.524Z,0.70
2023-03-13T23:51:08.157Z,0.80
2023-03-13T23:53:37.149Z,0.80
2023-03-13T23:56:05.333Z,0.80
2023-03-13T23:58:34.191Z,1.00
